Mafeking, South Africa
Current Conditions -  °F | °C
As of 10:00 AM on Sunday 26 Oct 2014 (Local Time) from FBSK Reporting Station
Broken Clouds Broken Clouds  
Wind Chill: 75°   Ceiling: 3000
Heat Index: 75°   Visibility: 6mi
Dew Point: 52°   Wind: 17mph
Humidity: 44%   Direction: 60°ENE
Pressure: 30.21"   Gusts: NA
Location:  25.86°S, 25.65°E
Report Text: FBSK 260800Z 06015KT 020V080 9999 BKN030 24/11 Q1023 NOSIG
Loading
Personal Weather Stations






























Interactive Weather Map
Tropical Storm Tracking
New forecast layout! Learn more

10-Day Weather Forecast

Advertisements
Track Severe Weather on mobile